createdAt,value
2023-02-02T00:00:43.922Z,99803.03
2023-02-02T00:05:53.583Z,99788.47
2023-02-02T00:10:57.241Z,99789.41
2023-02-02T00:16:20.525Z,99796.22
2023-02-02T00:21:23.812Z,99791.47
2023-02-02T00:26:26.910Z,99736.59
2023-02-02T00:31:29.841Z,99738.81
2023-02-02T00:36:32.947Z,99739.81
2023-02-02T00:41:35.877Z,99757.69
2023-02-02T00:46:41.234Z,99776.66
2023-02-02T00:51:45.235Z,99784.38
2023-02-02T00:56:48.408Z,99808.31
2023-02-02T01:01:51.489Z,99777.81
2023-02-02T01:06:54.410Z,99772.09
2023-02-02T01:11:58.187Z,99774.97
2023-02-02T01:17:01.001Z,99787.38
2023-02-02T01:22:04.250Z,99783.34
2023-02-02T01:27:07.558Z,99807.75
2023-02-02T01:32:11.591Z,99809.09
2023-02-02T01:37:14.408Z,99821.94
2023-02-02T01:42:22.701Z,99822.41
2023-02-02T01:47:31.302Z,99799.53
2023-02-02T01:52:35.627Z,99802.25
2023-02-02T01:57:45.433Z,99792.72
2023-02-02T02:02:49.635Z,99780.72
2023-02-02T02:08:08.339Z,99759.75
2023-02-02T02:13:12.510Z,99749.84
2023-02-02T02:18:44.271Z,99752.91
2023-02-02T02:24:38.114Z,99760.69
2023-02-02T02:30:05.307Z,99749.59
2023-02-02T02:35:32.509Z,99774.97
2023-02-02T02:40:47.878Z,99772.38
2023-02-02T02:45:51.342Z,99775.94
2023-02-02T02:50:54.265Z,99771.91
2023-02-02T02:56:30.597Z,99780.00
2023-02-02T03:02:22.794Z,99766.66
2023-02-02T03:07:58.514Z,99749.00
2023-02-02T03:13:06.409Z,99764.13
2023-02-02T03:18:09.965Z,99765.66
2023-02-02T03:23:14.222Z,99777.56
2023-02-02T03:28:18.924Z,99774.19
2023-02-02T03:33:22.734Z,99777.75
2023-02-02T03:38:25.626Z,99767.66
2023-02-02T03:43:28.864Z,99767.19
2023-02-02T03:48:35.475Z,99766.81
2023-02-02T03:53:40.506Z,99753.25
2023-02-02T03:58:44.232Z,99746.16
2023-02-02T04:03:47.054Z,99724.72
2023-02-02T04:08:50.343Z,99734.75
2023-02-02T04:13:53.241Z,99739.66
2023-02-02T04:18:56.181Z,99720.16
2023-02-02T04:23:59.390Z,99717.28
2023-02-02T04:29:02.253Z,99716.03
2023-02-02T04:34:05.255Z,99706.97
2023-02-02T04:39:13.397Z,99712.69
2023-02-02T04:44:17.034Z,99716.53
2023-02-02T04:49:20.267Z,99719.25
2023-02-02T04:54:23.067Z,99706.66
2023-02-02T04:59:30.299Z,99708.22
2023-02-02T05:04:33.225Z,99714.28
2023-02-02T05:09:36.159Z,99737.25
2023-02-02T05:14:39.412Z,99729.19
2023-02-02T05:19:42.844Z,99739.16
2023-02-02T05:24:46.704Z,99744.28
2023-02-02T05:29:49.602Z,99748.69
2023-02-02T05:34:52.551Z,99788.91
2023-02-02T05:39:55.529Z,99806.41
2023-02-02T05:44:58.568Z,99808.91
2023-02-02T05:50:02.642Z,99835.34
2023-02-02T05:55:06.442Z,99830.81
2023-02-02T06:00:10.491Z,99820.56
2023-02-02T06:05:13.622Z,99812.94
2023-02-02T06:10:17.047Z,99828.78
2023-02-02T06:15:20.230Z,99843.28
2023-02-02T06:20:23.200Z,99834.34
2023-02-02T06:25:26.598Z,99839.25
2023-02-02T06:30:29.634Z,99840.56
2023-02-02T06:35:32.720Z,99849.59
2023-02-02T06:40:35.833Z,99857.22
2023-02-02T06:45:40.534Z,99847.47
2023-02-02T06:50:43.490Z,99841.50
2023-02-02T06:55:54.726Z,99835.91
2023-02-02T07:01:10.832Z,99826.88
2023-02-02T07:06:26.815Z,99805.31
2023-02-02T07:11:32.989Z,99805.09
2023-02-02T07:16:37.926Z,99809.31
2023-02-02T07:21:40.821Z,99836.22
2023-02-02T07:26:43.625Z,99855.38
2023-02-02T07:31:46.856Z,99876.38
2023-02-02T07:36:50.077Z,99884.13
2023-02-02T07:41:53.050Z,99876.06
2023-02-02T07:46:56.062Z,99878.81
2023-02-02T07:51:58.922Z,99899.00
2023-02-02T07:57:02.333Z,99897.38
2023-02-02T08:02:05.496Z,99899.16
2023-02-02T08:07:08.697Z,99901.53
2023-02-02T08:12:11.775Z,99901.16
2023-02-02T08:17:15.004Z,99915.44
2023-02-02T08:22:20.220Z,99917.19
2023-02-02T08:27:23.235Z,99921.31
2023-02-02T08:32:26.186Z,99905.91
2023-02-02T08:37:29.043Z,99915.78
2023-02-02T08:42:32.068Z,99929.34
2023-02-02T08:47:35.015Z,99921.66
2023-02-02T08:52:38.081Z,99928.91
2023-02-02T08:57:41.044Z,99918.72
2023-02-02T09:02:43.979Z,99920.81
2023-02-02T09:07:49.255Z,99914.13
2023-02-02T09:12:52.414Z,99917.69
2023-02-02T09:17:55.822Z,99917.44
2023-02-02T09:22:58.733Z,99922.19
2023-02-02T09:28:01.708Z,99927.50
2023-02-02T09:33:05.203Z,99934.22
2023-02-02T09:38:08.508Z,99942.75
2023-02-02T09:43:45.307Z,99959.63
2023-02-02T09:49:05.818Z,99962.97
2023-02-02T09:54:21.120Z,99958.41
2023-02-02T09:59:35.747Z,99958.28
2023-02-02T10:04:42.169Z,99961.09
2023-02-02T10:10:00.339Z,99956.09
2023-02-02T10:15:17.867Z,99952.66
2023-02-02T10:20:44.796Z,99969.28
2023-02-02T10:26:20.112Z,99993.00
2023-02-02T10:32:25.102Z,99985.75
2023-02-02T10:37:57.106Z,99971.34
2023-02-02T10:43:54.547Z,99969.91
2023-02-02T10:49:41.914Z,99975.84
2023-02-02T10:54:59.128Z,99975.75
2023-02-02T11:00:28.775Z,99983.22
2023-02-02T11:05:50.874Z,99988.78
2023-02-02T11:10:56.943Z,99978.28
2023-02-02T11:16:44.457Z,99964.00
2023-02-02T11:22:04.598Z,99958.31
2023-02-02T11:27:27.833Z,99955.16
2023-02-02T11:32:33.200Z,99953.63
2023-02-02T11:37:40.326Z,99942.25
2023-02-02T11:42:47.886Z,99951.00
2023-02-02T11:47:51.911Z,99960.13
2023-02-02T11:52:56.799Z,99950.44
2023-02-02T11:58:30.142Z,99939.47
2023-02-02T12:03:33.034Z,99942.53
2023-02-02T12:08:36.145Z,99936.69
2023-02-02T12:14:00.397Z,99930.59
2023-02-02T12:19:32.859Z,99929.88
2023-02-02T12:24:45.730Z,99937.94
2023-02-02T12:30:00.245Z,99936.13
2023-02-02T12:35:36.371Z,99940.84
2023-02-02T12:41:00.991Z,99932.97
2023-02-02T12:46:38.274Z,99922.00
2023-02-02T12:52:12.373Z,99925.88
2023-02-02T12:57:37.896Z,99923.94
2023-02-02T13:03:09.616Z,99923.94
2023-02-02T13:08:42.661Z,99918.41
2023-02-02T13:13:45.688Z,99927.69
2023-02-02T13:19:04.852Z,99938.50
2023-02-02T13:24:18.341Z,99931.31
2023-02-02T13:29:42.665Z,99938.66
2023-02-02T13:34:59.845Z,99935.06
2023-02-02T13:40:29.273Z,99928.69
2023-02-02T13:46:25.258Z,99935.59
2023-02-02T13:51:31.311Z,99932.81
2023-02-02T13:56:51.663Z,99943.59
2023-02-02T14:01:57.037Z,99942.53
2023-02-02T14:12:11.388Z,99959.69
2023-02-02T14:17:14.305Z,99960.81
2023-02-02T14:22:37.919Z,99965.25
2023-02-02T14:27:57.052Z,99966.34
2023-02-02T14:33:21.922Z,99951.78
2023-02-02T14:38:46.240Z,99965.22
2023-02-02T14:43:52.336Z,99997.22
2023-02-02T14:48:57.203Z,99973.09
2023-02-02T14:54:06.391Z,99983.88
2023-02-02T14:59:27.036Z,99991.22
2023-02-02T15:04:30.272Z,99987.34
2023-02-02T15:09:38.240Z,99981.19
2023-02-02T15:15:16.622Z,99986.56
2023-02-02T15:20:43.046Z,99991.66
2023-02-02T15:26:19.805Z,99984.97
2023-02-02T15:31:46.029Z,99996.31
2023-02-02T15:36:53.830Z,100003.84
2023-02-02T15:42:19.175Z,100020.13
2023-02-02T15:47:31.470Z,100023.28
2023-02-02T15:52:38.114Z,100027.41
2023-02-02T15:57:45.566Z,100026.53
2023-02-02T16:02:55.621Z,100044.25
2023-02-02T16:08:06.656Z,100056.81
2023-02-02T16:13:28.569Z,100070.06
2023-02-02T16:18:31.505Z,100069.34
2023-02-02T16:23:37.218Z,100067.22
2023-02-02T16:28:41.000Z,100077.41
2023-02-02T16:33:45.662Z,100094.50
2023-02-02T16:38:52.272Z,100111.22
2023-02-02T16:43:55.653Z,100111.84
2023-02-02T16:49:02.006Z,100130.56
2023-02-02T16:54:07.968Z,100143.94
2023-02-02T16:59:23.018Z,100147.66
2023-02-02T17:04:30.013Z,100149.19
2023-02-02T17:09:36.495Z,100174.16
2023-02-02T17:14:54.161Z,100176.78
2023-02-02T17:19:57.267Z,100178.09
2023-02-02T17:25:00.313Z,100188.94
2023-02-02T17:30:05.634Z,100213.53
2023-02-02T17:42:01.046Z,100231.16
2023-02-02T17:47:13.201Z,100236.88
2023-02-02T17:52:16.200Z,100252.38
2023-02-02T17:57:19.141Z,100255.13
2023-02-02T18:02:22.219Z,100258.44
2023-02-02T18:07:25.967Z,100262.50
2023-02-02T18:12:28.725Z,100244.25
2023-02-02T18:17:33.976Z,100240.31
2023-02-02T18:22:37.643Z,100251.00
2023-02-02T18:27:40.812Z,100255.75
2023-02-02T18:32:44.073Z,100253.97
2023-02-02T18:37:47.280Z,100262.06
2023-02-02T18:42:50.505Z,100270.53
2023-02-02T18:47:53.236Z,100291.44
2023-02-02T18:52:56.968Z,100278.53
2023-02-02T18:57:59.971Z,100285.31
2023-02-02T19:03:02.873Z,100294.22
2023-02-02T19:08:05.962Z,100275.03
2023-02-02T19:13:20.396Z,100288.38
2023-02-02T19:18:24.615Z,100302.53
2023-02-02T19:23:32.371Z,100324.69
2023-02-02T19:28:35.292Z,100342.69
2023-02-02T19:33:45.636Z,100346.41
2023-02-02T19:38:55.526Z,100341.59
2023-02-02T19:44:19.284Z,100353.34
2023-02-02T19:49:36.416Z,100356.41
2023-02-02T19:54:48.007Z,100370.78
2023-02-02T19:59:52.702Z,100380.88
2023-02-02T20:05:22.108Z,100381.94
2023-02-02T20:10:44.590Z,100393.69
2023-02-02T20:15:51.171Z,100408.06
2023-02-02T20:20:57.145Z,100415.91
2023-02-02T20:26:07.434Z,100427.56
2023-02-02T20:31:17.309Z,100431.44
2023-02-02T20:36:40.977Z,100429.44
2023-02-02T20:41:44.048Z,100427.31
2023-02-02T20:46:47.194Z,100426.72
2023-02-02T20:51:50.174Z,100422.50
2023-02-02T20:56:54.474Z,100432.91
2023-02-02T21:01:59.046Z,100435.41
2023-02-02T21:07:02.105Z,100444.94
2023-02-02T21:12:05.235Z,100458.47
2023-02-02T21:17:15.216Z,100462.16
2023-02-02T21:22:19.188Z,100463.94
2023-02-02T21:27:22.193Z,100474.41
2023-02-02T21:32:25.301Z,100468.94
2023-02-02T21:37:29.245Z,100471.03
2023-02-02T21:42:35.517Z,100488.75
2023-02-02T21:48:02.671Z,100491.38
2023-02-02T21:53:23.135Z,100500.78
2023-02-02T21:58:40.226Z,100503.72
2023-02-02T22:03:46.797Z,100503.94
2023-02-02T22:08:51.192Z,100511.81
2023-02-02T22:13:55.777Z,100511.44
2023-02-02T22:19:01.146Z,100520.47
2023-02-02T22:24:04.521Z,100528.63
2023-02-02T22:29:18.669Z,100542.66
2023-02-02T22:34:21.623Z,100550.41
2023-02-02T22:39:24.520Z,100548.00
2023-02-02T22:44:27.676Z,100566.34
2023-02-02T22:49:30.362Z,100578.06
2023-02-02T22:54:33.482Z,100582.94
2023-02-02T22:59:36.483Z,100585.09
2023-02-02T23:04:39.495Z,100589.91
2023-02-02T23:09:42.363Z,100592.78
2023-02-02T23:14:45.375Z,100601.03
2023-02-02T23:19:48.370Z,100600.88
2023-02-02T23:24:51.294Z,100613.03
2023-02-02T23:29:54.831Z,100632.88
2023-02-02T23:34:57.814Z,100639.56
2023-02-02T23:40:01.301Z,100655.84
2023-02-02T23:45:04.826Z,100670.97
2023-02-02T23:50:09.447Z,100688.72
2023-02-02T23:55:12.568Z,100683.84
